Manatawny, Pennsylvania
Current Conditions -  °F | °C
As of 2:54 PM on Monday 22 Dec 2014 (Local Time) from KRDG Reporting Station
Overcast Overcast  
Wind Chill: 38°   Ceiling: 2300
Heat Index: 41°   Visibility: 10mi
Dew Point: 30°   Wind: 5mph
Humidity: 65%   Direction: 80°E
Pressure: 30.19"   Gusts: NA
Location:  40.3836°N, 75.7884°W
Report Text: KRDG 221954Z AUTO 08004KT 10SM OVC023 05/M01 A3019 RMK AO2 SLP231 T00501011
Loading
Personal Weather Stations






























Interactive Weather Map New forecast layout! Learn more

10-Day Weather Forecast

Advertisements
Track Severe Weather on mobile